To NAV CANADA Home Page Login to a new session Search on AWWS site Feedback and Comments Disclaimer Vers la page française équivalente Tips FAQ What's new on the site To the Forecasts and Observations / NOTAM section To "File a Flight Plan" website Publications and other links Update of the User's profile FIC Telephone Numbers My Weather Data Folder Route Weather Data Regional Weather Data Local Weather Data To the Forecasts and Observations / NOTAM section
Request Generated 10/18/2017 at 03:46:34 UTC . Weather information available at that time is displayed.

METAR/TAF

KUUJJUAQ/QC    

METAR CYVP 180300Z 02002KT 15SM SKC M05/M06 A2975 RMK SLP078=
METAR CYVP 180200Z 35002KT 15SM SKC M04/M06 A2975 RMK SLP079=
METAR CYVP 180100Z 07003KT 15SM SKC M03/M06 A2975 RMK SLP078=

TAF CYVP 172339Z 1800/1812 VRB03KT P6SM SCT040 BKN250 TEMPO 1800/1802
BKN040
FM180200 03005KT P6SM BKN040 OVC100
RMK NXT FCST BY 180600Z=
Your time UTC time
Weather data provided by Environment Canada and NAV CANADA